Time;durP1;ratioP1;P1;durP2;ratioP2;P2;SDS_P1;SDS_P2;PMS_P1;PMS_P2;Temp;Humidity;BMP_temperature;BMP_pressure;BME280_temperature;BME280_humidity;BME280_pressure;Samples;Min_cycle;Max_cycle;Signal;HPM_P1;HPM_P2
2021/06/05 00:02:33;;;;;;;5.27;4.87;;;;;;;15.50;77.00;95576.47;4897144;29;20497;-83
2021/06/05 00:05:00;;;;;;;5.30;4.90;;;;;;;15.49;77.30;95577.47;4907081;29;20437;-83
2021/06/05 00:07:27;;;;;;;6.30;4.60;;;;;;;15.51;77.43;95574.66;4904355;29;20490;-82
2021/06/05 00:09:54;;;;;;;5.33;4.83;;;;;;;15.54;77.08;95573.56;4936978;29;20440;-83
2021/06/05 00:12:24;;;;;;;6.10;5.53;;;;;;;15.47;76.63;95574.13;4888751;29;20517;-83
2021/06/05 00:14:52;;;;;;;5.83;4.63;;;;;;;15.41;77.21;95569.41;4937310;29;20505;-83
2021/06/05 00:17:19;;;;;;;5.70;5.20;;;;;;;15.39;77.13;95566.09;4941525;29;20435;-82
2021/06/05 00:19:46;;;;;;;5.70;5.20;;;;;;;15.36;77.66;95566.38;4941172;29;20458;-83
2021/06/05 00:22:12;;;;;;;6.07;5.47;;;;;;;15.34;77.59;95563.03;4923208;29;20489;-82
2021/06/05 00:24:41;;;;;;;5.60;5.03;;;;;;;15.34;77.78;95572.78;4940450;29;20934;-82
2021/06/05 00:27:08;;;;;;;5.50;5.07;;;;;;;15.29;77.86;95562.59;4940754;29;20479;-83
2021/06/05 00:29:34;;;;;;;6.07;5.30;;;;;;;15.29;77.73;95569.69;4940194;29;20507;-83
2021/06/05 00:32:03;;;;;;;6.30;5.30;;;;;;;15.29;77.41;95578.47;4941268;29;20454;-83
2021/06/05 00:34:30;;;;;;;6.60;5.93;;;;;;;15.31;77.15;95576.50;4940435;29;20925;-83
2021/06/05 00:36:56;;;;;;;5.27;4.80;;;;;;;15.32;77.17;95583.47;4940043;29;20522;-83
2021/06/05 00:39:23;;;;;;;5.87;4.67;;;;;;;15.35;76.82;95577.94;4940283;29;20450;-83
2021/06/05 00:41:49;;;;;;;8.70;5.30;;;;;;;15.31;76.56;95573.03;4922291;29;20460;-82
2021/06/05 00:44:16;;;;;;;6.30;5.53;;;;;;;15.30;76.83;95566.09;4940158;29;20467;-82
2021/06/05 00:46:43;;;;;;;5.40;4.90;;;;;;;15.22;77.41;95569.44;4939280;29;20959;-82
2021/06/05 00:49:11;;;;;;;6.40;5.67;;;;;;;15.19;77.33;95569.72;4939626;29;20454;-82
2021/06/05 00:51:43;;;;;;;5.57;4.93;;;;;;;15.21;77.44;95572.22;4939296;29;20447;-83
2021/06/05 00:54:12;;;;;;;6.20;5.60;;;;;;;15.19;77.13;95565.28;4939281;29;20808;-83
2021/06/05 00:56:41;;;;;;;5.37;4.70;;;;;;;15.15;77.23;95574.47;4939581;29;20815;-82
2021/06/05 00:59:09;;;;;;;5.93;5.43;;;;;;;15.15;77.24;95578.94;4939771;29;20437;-82
2021/06/05 01:01:36;;;;;;;5.40;4.90;;;;;;;15.15;77.50;95574.47;4939360;29;20445;-82
2021/06/05 01:04:02;;;;;;;7.20;6.03;;;;;;;15.10;77.63;95576.72;4906499;29;21134;-83
2021/06/05 01:06:36;;;;;;;5.87;5.47;;;;;;;14.97;77.95;95580.59;4939677;29;20431;-82
2021/06/05 01:09:09;;;;;;;5.73;5.33;;;;;;;14.98;77.61;95576.97;4939700;29;20484;-82
2021/06/05 01:18:28;;;;;;;7.13;5.40;;;;;;;14.95;78.73;95588.66;4938831;29;20488;-83
2021/06/05 01:21:38;;;;;;;6.30;5.50;;;;;;;14.99;78.81;95590.06;4939235;29;20439;-83
2021/06/05 01:24:17;;;;;;;6.17;5.60;;;;;;;14.97;79.11;95588.53;4939792;29;20453;-83
2021/06/05 01:26:53;;;;;;;7.90;7.07;;;;;;;14.99;78.14;95587.41;4939434;29;20489;-83
2021/06/05 01:29:23;;;;;;;5.30;4.90;;;;;;;15.00;78.27;95582.97;4939737;29;20437;-83
2021/06/05 01:31:52;;;;;;;6.23;5.70;;;;;;;15.00;78.08;95583.78;4921900;29;20475;-83
2021/06/05 01:37:42;;;;;;;6.03;5.53;;;;;;;14.98;79.00;95592.84;4939705;29;20458;-83
2021/06/05 01:40:10;;;;;;;8.33;6.50;;;;;;;14.92;79.00;95588.94;4941881;29;20522;-82
2021/06/05 01:42:41;;;;;;;5.93;5.43;;;;;;;14.87;79.42;95597.28;4939133;29;20441;-83
2021/06/05 01:45:13;;;;;;;6.30;5.80;;;;;;;14.90;78.96;95590.91;4921328;29;20535;-82
2021/06/05 01:47:40;;;;;;;8.37;5.93;;;;;;;14.90;78.83;95593.53;4905759;29;20900;-83
2021/06/05 01:50:08;;;;;;;5.33;4.93;;;;;;;14.91;78.79;95591.72;4939145;29;20457;-83
2021/06/05 01:52:38;;;;;;;6.80;6.10;;;;;;;14.85;78.75;95590.50;4938655;29;20435;-82
2021/06/05 01:55:10;;;;;;;6.33;5.73;;;;;;;14.88;78.66;95587.56;4938724;29;20444;-83
2021/06/05 01:57:41;;;;;;;6.37;5.17;;;;;;;14.76;79.34;95589.53;4939200;29;20765;-83
2021/06/05 02:03:29;;;;;;;5.67;5.10;;;;;;;14.70;79.40;95592.69;4937948;29;20494;-82
2021/06/05 02:05:56;;;;;;;6.27;5.67;;;;;;;14.66;79.77;95583.38;4938761;29;20443;-82
2021/06/05 02:08:25;;;;;;;7.17;6.47;;;;;;;14.59;79.48;95589.34;4938238;29;20482;-82
2021/06/05 02:10:56;;;;;;;6.50;6.00;;;;;;;14.50;79.50;95580.47;4938831;29;20793;-83
2021/06/05 02:13:31;;;;;;;6.37;5.87;;;;;;;14.50;79.73;95581.28;4939902;29;20442;-82
2021/06/05 02:16:00;;;;;;;6.20;5.70;;;;;;;14.49;79.34;95589.34;4939389;29;21333;-81
2021/06/05 02:18:29;;;;;;;6.00;5.30;;;;;;;14.51;79.56;95593.53;4906066;29;20446;-81
2021/06/05 02:20:58;;;;;;;7.10;6.40;;;;;;;14.48;79.63;95587.69;4937919;29;20453;-82
2021/06/05 02:23:29;;;;;;;7.13;6.53;;;;;;;14.48;80.04;95590.31;4938371;29;20441;-81
2021/06/05 02:25:59;;;;;;;8.40;6.63;;;;;;;14.43;80.30;95593.34;4937750;29;20478;-82
2021/06/05 02:28:29;;;;;;;6.90;5.90;;;;;;;14.44;80.08;95589.72;4938622;29;20475;-82
2021/06/05 02:30:57;;;;;;;6.40;5.80;;;;;;;14.40;80.07;95593.59;4937669;29;20445;-81
2021/06/05 02:33:24;;;;;;;9.00;6.30;;;;;;;14.37;80.25;95595.66;4888784;29;20441;-81
2021/06/05 02:35:51;;;;;;;5.73;5.23;;;;;;;14.33;79.97;95589.84;4938188;29;20443;-81
2021/06/05 02:38:20;;;;;;;6.43;5.83;;;;;;;14.26;79.80;95589.53;4939619;29;20448;-81
2021/06/05 02:40:48;;;;;;;5.83;5.23;;;;;;;14.27;79.79;95590.38;4937527;29;20438;-82
2021/06/05 02:43:18;;;;;;;6.80;6.20;;;;;;;14.23;79.77;95592.47;4937787;29;20488;-82
2021/06/05 02:45:51;;;;;;;6.53;5.93;;;;;;;14.22;80.17;95593.44;4937833;29;20445;-82
2021/06/05 02:48:18;;;;;;;8.10;5.90;;;;;;;14.18;80.49;95585.91;4937698;29;20982;-81
2021/06/05 02:50:48;;;;;;;7.30;5.90;;;;;;;14.21;80.18;95583.84;4937789;29;20972;-81
2021/06/05 02:59:58;;;;;;;6.53;5.70;;;;;;;14.21;80.76;95588.28;4937443;29;20920;-81
2021/06/05 03:02:26;;;;;;;6.57;5.97;;;;;;;14.26;81.03;95591.34;4937691;29;20447;-81
2021/06/05 03:04:53;;;;;;;7.23;6.53;;;;;;;14.14;81.92;95587.97;4937458;29;20477;-81
2021/06/05 03:07:20;;;;;;;9.03;8.10;;;;;;;14.12;82.76;95584.63;4937351;29;20474;-81
2021/06/05 03:09:46;;;;;;;12.17;8.47;;;;;;;14.12;83.93;95589.06;4937474;29;20443;-81
2021/06/05 03:12:14;;;;;;;8.67;6.83;;;;;;;14.19;84.17;95591.06;4904661;29;20461;-81
2021/06/05 03:14:42;;;;;;;8.60;7.63;;;;;;;14.27;84.20;95591.22;4937646;29;20925;-82
2021/06/05 03:17:09;;;;;;;8.73;7.73;;;;;;;14.36;84.18;95594.00;4937382;29;20817;-82
2021/06/05 03:19:38;;;;;;;8.60;7.80;;;;;;;14.31;84.18;95593.59;4938648;29;20456;-82
2021/06/05 03:22:05;;;;;;;9.90;9.00;;;;;;;14.31;84.55;95593.59;4939029;29;20483;-81
2021/06/05 03:24:32;;;;;;;10.00;8.30;;;;;;;14.49;85.48;95587.53;4939825;29;20446;-82
2021/06/05 03:27:00;;;;;;;10.60;9.60;;;;;;;14.76;84.53;95588.69;4937587;29;20479;-82
2021/06/05 03:29:28;;;;;;;9.67;8.67;;;;;;;15.05;83.98;95588.69;4920292;29;20442;-81
2021/06/05 03:31:56;;;;;;;10.40;8.97;;;;;;;15.26;82.32;95586.69;4941238;29;20515;-83
2021/06/05 03:34:22;;;;;;;8.53;7.73;;;;;;;15.49;80.54;95584.56;4920950;29;20507;-84
2021/06/05 03:36:51;;;;;;;8.77;7.90;;;;;;;15.94;79.59;95587.38;4938401;29;20454;-81
2021/06/05 03:39:18;;;;;;;9.67;7.57;;;;;;;16.29;76.52;95591.13;4938352;29;20443;-81
2021/06/05 03:41:44;;;;;;;12.97;8.23;;;;;;;16.70;74.90;95593.25;4938643;29;21227;-83
2021/06/05 03:44:11;;;;;;;8.93;6.37;;;;;;;16.99;72.98;95587.72;4938902;29;20443;-83
2021/06/05 03:46:38;;;;;;;8.10;6.83;;;;;;;17.31;71.85;95581.84;4938127;29;20450;-83
2021/06/05 03:49:06;;;;;;;7.87;6.90;;;;;;;17.56;71.16;95585.53;4938312;29;20470;-82
2021/06/05 03:51:32;;;;;;;7.83;6.43;;;;;;;17.95;69.95;95583.31;4883374;29;20468;-83
2021/06/05 03:54:01;;;;;;;10.53;7.77;;;;;;;18.43;67.55;95584.50;4883456;29;20990;-82
2021/06/05 03:56:27;;;;;;;7.50;6.80;;;;;;;18.82;65.04;95582.16;4884651;29;20469;-84
2021/06/05 03:58:54;;;;;;;10.10;7.00;;;;;;;19.04;64.63;95580.66;4883774;29;20451;-82
2021/06/05 04:01:24;;;;;;;7.70;7.00;;;;;;;19.13;62.90;95576.19;4883635;29;20459;-82
2021/06/05 04:03:51;;;;;;;6.60;6.00;;;;;;;19.08;63.58;95582.03;4884867;29;20981;-82
2021/06/05 04:06:20;;;;;;;8.63;5.77;;;;;;;19.05;63.78;95587.66;4868534;29;20584;-82
2021/06/05 04:08:47;;;;;;;7.40;6.80;;;;;;;19.02;63.89;95587.16;4883448;29;20495;-82
2021/06/05 04:11:15;;;;;;;7.83;6.27;;;;;;;18.99;63.60;95588.31;4882594;29;20487;-82
2021/06/05 04:13:42;;;;;;;7.27;6.57;;;;;;;18.86;64.00;95593.28;4882258;29;20451;-81
2021/06/05 04:16:08;;;;;;;9.57;6.43;;;;;;;18.68;65.34;95595.22;4912340;29;20461;-82
2021/06/05 04:18:39;;;;;;;7.17;6.47;;;;;;;18.41;65.75;95585.66;4940666;29;20947;-81
2021/06/05 04:21:08;;;;;;;7.83;7.13;;;;;;;18.43;67.00;95587.16;4940763;29;20448;-82
2021/06/05 04:23:35;;;;;;;7.60;6.90;;;;;;;18.65;66.74;95580.44;4940933;29;20440;-82
2021/06/05 04:26:03;;;;;;;9.33;6.70;;;;;;;18.80;65.67;95583.31;4941294;29;20484;-82
2021/06/05 04:28:31;;;;;;;9.47;7.10;;;;;;;19.15;64.92;95572.38;4940494;29;20492;-82
2021/06/05 04:30:58;;;;;;;6.97;6.20;;;;;;;19.58;63.23;95572.19;4941932;29;20456;-82
2021/06/05 04:33:26;;;;;;;8.40;7.33;;;;;;;20.00;61.19;95575.47;4923382;29;20448;-82
2021/06/05 04:35:54;;;;;;;8.60;5.50;;;;;;;20.42;60.07;95572.47;4941363;29;20447;-82
2021/06/05 04:38:21;;;;;;;7.67;6.90;;;;;;;20.83;58.71;95580.28;4941175;29;20448;-81
2021/06/05 04:40:47;;;;;;;9.00;6.27;;;;;;;21.14;57.23;95566.06;4891684;29;20458;-82
2021/06/05 04:43:15;;;;;;;9.47;6.97;;;;;;;21.44;56.20;95565.19;4940640;29;20832;-84
2021/06/05 04:45:44;;;;;;;10.00;6.20;;;;;;;21.71;55.97;95558.41;4940259;29;20962;-84
2021/06/05 04:48:11;;;;;;;7.47;6.70;;;;;;;22.05;54.93;95557.09;4940990;29;20842;-82
2021/06/05 04:50:39;;;;;;;10.90;6.23;;;;;;;22.39;53.60;95554.66;4940983;29;20463;-84
2021/06/05 04:53:07;;;;;;;8.70;6.80;;;;;;;22.72;52.27;95559.56;4941768;29;20461;-85
2021/06/05 04:55:35;;;;;;;6.63;6.07;;;;;;;22.77;50.76;95560.66;4941489;29;20459;-84
2021/06/05 04:58:02;;;;;;;9.10;6.90;;;;;;;22.96;51.00;95548.56;4942533;29;21258;-82
2021/06/05 05:00:32;;;;;;;6.63;6.03;;;;;;;23.27;50.38;95544.72;4939907;29;20945;-82
2021/06/05 05:03:00;;;;;;;5.87;5.40;;;;;;;23.43;49.60;95545.28;4940029;29;20438;-82
2021/06/05 05:05:27;;;;;;;7.50;5.77;;;;;;;23.73;49.75;95539.78;4939644;29;20482;-82
2021/06/05 05:07:59;;;;;;;5.73;5.33;;;;;;;24.04;48.56;95542.03;4940407;29;20479;-82
2021/06/05 05:10:30;;;;;;;11.57;7.10;;;;;;;24.15;48.26;95548.69;4940498;29;20432;-82
2021/06/05 05:12:57;;;;;;;7.80;6.43;;;;;;;24.13;49.46;95546.22;4939639;29;20451;-82
2021/06/05 05:15:24;;;;;;;7.17;6.17;;;;;;;23.78;49.31;95540.84;4940605;29;20462;-84
2021/06/05 05:17:51;;;;;;;6.70;6.20;;;;;;;23.25;50.66;95531.53;4940925;29;20440;-83
2021/06/05 05:20:22;;;;;;;8.87;6.60;;;;;;;23.39;51.83;95532.47;4940076;29;20442;-82
2021/06/05 05:22:49;;;;;;;7.60;6.87;;;;;;;23.25;52.38;95528.84;4921742;29;20454;-82
2021/06/05 05:25:17;;;;;;;6.77;5.77;;;;;;;23.53;52.30;95528.06;4939292;29;20495;-82
2021/06/05 05:27:43;;;;;;;8.90;6.80;;;;;;;23.77;51.58;95530.31;4939157;29;20482;-82
2021/06/05 05:30:16;;;;;;;60.10;39.90;;;;;;;24.03;53.01;95535.84;4940705;29;20821;-85
2021/06/05 05:32:43;;;;;;;20.10;15.73;;;;;;;23.47;53.91;95535.03;4940160;29;20458;-85
2021/06/05 05:35:11;;;;;;;15.60;12.80;;;;;;;23.37;52.25;95529.16;4941142;29;20450;-85
2021/06/05 05:37:39;;;;;;;20.50;13.70;;;;;;;23.75;52.79;95521.66;4938895;29;20449;-83
2021/06/05 05:40:07;;;;;;;17.93;10.80;;;;;;;24.30;51.76;95525.31;4939271;29;20852;-83
2021/06/05 05:42:33;;;;;;;10.83;9.70;;;;;;;24.35;52.62;95522.84;4940370;29;20436;-83
2021/06/05 05:45:00;;;;;;;10.33;7.40;;;;;;;24.77;51.30;95521.75;4939829;29;20460;-80
2021/06/05 05:47:26;;;;;;;8.57;7.77;;;;;;;24.74;49.34;95526.69;4939521;29;20786;-82
2021/06/05 06:24:48;;;;;;;9.83;6.70;;;;;;;25.71;49.82;95497.47;5170433;27;20521;-83
2021/06/05 06:27:15;;;;;;;8.23;7.50;;;;;;;25.89;47.52;95497.66;5153811;27;20432;-85
2021/06/05 06:29:41;;;;;;;9.70;5.80;;;;;;;26.16;47.51;95500.28;5154611;27;20470;-83
2021/06/05 06:32:08;;;;;;;6.60;5.93;;;;;;;26.17;47.98;95501.94;5154372;27;20433;-83
2021/06/05 06:34:35;;;;;;;8.63;5.93;;;;;;;25.99;47.86;95507.97;5153663;27;20446;-81
2021/06/05 06:37:05;;;;;;;7.07;6.30;;;;;;;26.15;47.82;95509.41;5152904;27;20469;-83
2021/06/05 06:39:32;;;;;;;10.20;6.30;;;;;;;26.23;47.31;95501.91;5152691;27;20485;-82
2021/06/05 06:42:00;;;;;;;9.73;5.90;;;;;;;26.54;47.33;95498.50;5152727;27;20454;-82
2021/06/05 06:44:27;;;;;;;6.07;5.57;;;;;;;26.45;46.89;95504.38;5152886;27;20516;-82
2021/06/05 06:46:54;;;;;;;6.40;5.80;;;;;;;26.12;47.31;95504.44;5133603;27;20438;-76
2021/06/05 06:49:22;;;;;;;9.27;7.50;;;;;;;26.19;54.64;95489.94;5152814;27;20860;-80
2021/06/05 06:51:49;;;;;;;6.37;5.67;;;;;;;26.18;47.25;95498.22;5147273;27;20443;-82
2021/06/05 06:54:16;;;;;;;5.73;5.27;;;;;;;26.20;47.03;95496.13;5133653;28;20434;-85
2021/06/05 06:56:43;;;;;;;6.07;5.47;;;;;;;26.39;45.32;95489.91;5132621;28;20446;-83
2021/06/05 07:09:16;;;;;;;9.43;5.80;;;;;;;26.75;45.75;95475.00;5150128;27;20753;-84
2021/06/05 07:11:43;;;;;;;7.83;6.50;;;;;;;26.99;43.73;95474.28;5151859;27;20877;-81
2021/06/05 07:14:10;;;;;;;7.20;5.67;;;;;;;27.01;43.75;95485.66;5152192;27;20783;-80
2021/06/05 07:16:38;;;;;;;7.00;5.63;;;;;;;26.85;44.27;95475.34;5115664;27;20442;-81
2021/06/05 07:19:06;;;;;;;9.00;6.00;;;;;;;26.88;43.73;95472.22;5151747;27;20479;-81
2021/06/05 07:21:33;;;;;;;9.70;6.27;;;;;;;26.81;43.04;95476.84;5151823;27;20456;-81
2021/06/05 07:23:59;;;;;;;12.60;5.30;;;;;;;26.98;43.60;95482.53;5151240;27;20558;-80
2021/06/05 07:26:28;;;;;;;9.63;6.77;;;;;;;27.05;43.70;95477.97;5151676;27;20441;-81
2021/06/05 07:28:58;;;;;;;13.57;7.63;;;;;;;27.01;44.34;95485.66;5148883;27;20929;-80
2021/06/05 07:31:28;;;;;;;10.33;6.83;;;;;;;26.88;44.33;95484.88;5157066;27;20462;-83
2021/06/05 07:33:55;;;;;;;13.07;6.30;;;;;;;26.85;44.71;95472.66;5130538;28;20888;-80
2021/06/05 07:36:24;;;;;;;13.20;7.00;;;;;;;26.56;45.68;95482.16;5118706;27;20447;-83
2021/06/05 07:38:51;;;;;;;9.97;7.73;;;;;;;26.67;45.88;95481.50;5098910;28;20796;-82
2021/06/05 07:41:17;;;;;;;18.83;7.10;;;;;;;26.47;45.10;95475.38;5118094;28;20458;-83
2021/06/05 07:43:45;;;;;;;8.70;6.50;;;;;;;26.42;46.08;95475.19;5117371;28;20482;-82
2021/06/05 07:46:12;;;;;;;12.73;7.30;;;;;;;26.62;46.17;95469.72;5126615;27;20912;-81
2021/06/05 07:48:39;;;;;;;13.77;7.43;;;;;;;26.67;44.03;95481.50;5140424;27;20452;-80
2021/06/05 07:51:06;;;;;;;8.67;7.77;;;;;;;26.55;44.64;95472.41;5101539;27;20438;-81
2021/06/05 07:53:34;;;;;;;9.77;6.80;;;;;;;26.46;45.36;95471.84;5138120;27;20438;-81
2021/06/05 07:56:01;;;;;;;9.73;7.80;;;;;;;26.14;44.46;95475.47;5137557;27;20835;-80
2021/06/05 07:58:27;;;;;;;17.37;7.00;;;;;;;26.22;44.52;95477.91;5102986;27;20433;-80
2021/06/05 08:00:55;;;;;;;9.10;7.40;;;;;;;25.84;44.22;95475.97;5137371;27;20431;-80
2021/06/05 08:03:22;;;;;;;9.80;7.37;;;;;;;25.88;45.27;95471.81;5138305;27;20534;-80
2021/06/05 08:05:48;;;;;;;9.03;6.20;;;;;;;25.91;44.76;95467.88;5137852;27;20433;-80
2021/06/05 08:08:15;;;;;;;13.07;7.00;;;;;;;26.08;44.74;95461.00;5138136;27;20433;-80
2021/06/05 08:10:44;;;;;;;15.60;9.50;;;;;;;26.35;44.18;95455.56;5137976;27;20442;-79
2021/06/05 08:13:12;;;;;;;6.13;5.50;;;;;;;26.61;43.48;95468.06;5137935;27;20430;-81
2021/06/05 08:15:41;;;;;;;8.73;6.30;;;;;;;26.86;41.37;95458.16;5136871;27;20917;-79
2021/06/05 08:18:10;;;;;;;11.17;6.50;;;;;;;26.78;41.62;95461.94;5129163;27;21010;-79
2021/06/05 08:20:41;;;;;;;10.60;5.90;;;;;;;26.90;41.85;95459.41;5123057;28;20439;-80
2021/06/05 08:23:09;;;;;;;16.10;7.50;;;;;;;26.99;41.96;95450.03;5116139;28;20497;-79
2021/06/05 08:25:37;;;;;;;6.90;6.00;;;;;;;26.97;41.43;95453.97;5116494;28;20434;-80
2021/06/05 08:28:04;;;;;;;6.47;5.83;;;;;;;27.04;39.09;95444.81;5080785;28;20462;-80
2021/06/05 08:30:34;;;;;;;6.10;5.70;;;;;;;26.94;39.78;95452.53;5116190;28;20411;-80
2021/06/05 08:33:01;;;;;;;5.63;5.17;;;;;;;27.06;38.05;95447.28;5097438;28;20940;-81
2021/06/05 08:35:29;;;;;;;9.37;5.50;;;;;;;27.15;38.23;95454.88;5105929;27;20442;-78
2021/06/05 08:37:55;;;;;;;7.10;5.93;;;;;;;27.25;38.47;95450.88;5137089;27;20472;-79
2021/06/05 08:40:26;;;;;;;6.83;6.23;;;;;;;27.29;37.97;95446.69;5136871;27;20480;-79
2021/06/05 08:42:55;;;;;;;9.00;6.37;;;;;;;27.31;36.99;95450.00;5136559;27;20479;-81
2021/06/05 08:45:28;;;;;;;6.13;5.63;;;;;;;27.34;36.73;95434.19;5137252;27;20929;-79
2021/06/05 08:47:56;;;;;;;5.93;5.30;;;;;;;27.34;36.52;95430.69;5135873;27;20908;-82
2021/06/05 08:50:28;;;;;;;7.57;5.40;;;;;;;27.29;35.76;95422.44;5134966;27;20864;-80
2021/06/05 08:53:03;;;;;;;6.27;5.67;;;;;;;26.95;37.59;95432.63;5137042;27;20517;-80
2021/06/05 08:55:36;;;;;;;7.87;6.67;;;;;;;26.93;37.79;95425.81;5136790;27;20791;-80
2021/06/05 09:04:46;;;;;;;4.50;4.10;;;;;;;26.31;36.97;95406.69;5136388;27;20468;-80
2021/06/05 09:07:15;;;;;;;7.60;5.10;;;;;;;26.48;37.50;95404.34;5136037;27;20809;-81
2021/06/05 09:09:48;;;;;;;8.50;5.40;;;;;;;26.60;36.79;95408.00;5136214;27;20479;-81
2021/06/05 09:12:15;;;;;;;6.03;5.40;;;;;;;26.75;37.15;95396.91;5136134;27;20474;-81
2021/06/05 09:14:43;;;;;;;14.27;6.43;;;;;;;26.76;37.47;95403.97;5136159;27;20928;-83
2021/06/05 09:17:19;;;;;;;14.30;6.80;;;;;;;26.71;37.14;95396.53;5150444;27;20445;-80
2021/06/05 09:20:01;;;;;;;10.63;6.20;;;;;;;26.67;36.51;95391.81;5156816;27;20437;-84
2021/06/05 09:22:33;;;;;;;7.40;5.17;;;;;;;26.55;36.69;95392.47;5157346;27;20471;-82
2021/06/05 09:25:19;;;;;;;16.73;5.90;;;;;;;26.41;36.79;95387.41;5156951;27;20491;-82
2021/06/05 09:27:46;;;;;;;7.83;4.50;;;;;;;26.40;37.74;95391.16;5157723;27;20488;-85
2021/06/05 09:30:31;;;;;;;8.50;5.70;;;;;;;26.47;38.02;95379.28;5121084;27;20430;-82
2021/06/05 09:33:00;;;;;;;5.97;5.03;;;;;;;26.52;36.26;95370.56;5157819;27;20437;-80
2021/06/05 09:35:29;;;;;;;9.20;4.77;;;;;;;26.57;38.81;95368.03;5159373;27;20460;-83
2021/06/05 09:38:12;;;;;;;5.87;5.37;;;;;;;26.63;37.12;95364.50;5157325;27;20444;-83
2021/06/05 09:40:54;;;;;;;8.37;5.93;;;;;;;26.49;40.40;95358.38;5157499;27;20448;-83
2021/06/05 09:43:24;;;;;;;6.23;5.73;;;;;;;26.14;38.08;95363.31;5156791;27;20562;-82
2021/06/05 09:46:06;;;;;;;10.43;5.70;;;;;;;26.04;39.56;95354.06;5154315;27;20454;-82
2021/06/05 09:48:36;;;;;;;6.83;5.67;;;;;;;26.12;39.02;95356.50;5137448;27;20458;-83
2021/06/05 09:51:05;;;;;;;6.77;4.93;;;;;;;26.05;40.18;95351.16;5136421;27;20433;-83
2021/06/05 09:53:34;;;;;;;8.40;5.33;;;;;;;25.98;36.99;95360.28;5136005;27;20433;-81
2021/06/05 09:56:22;;;;;;;6.67;6.00;;;;;;;25.88;37.48;95348.13;5135596;27;20969;-81
2021/06/05 09:59:01;;;;;;;7.30;6.73;;;;;;;25.86;48.75;95352.06;5099251;27;20473;-83
2021/06/05 10:01:30;;;;;;;5.83;5.10;;;;;;;25.78;36.66;95346.94;5136076;27;20441;-80
2021/06/05 10:04:09;;;;;;;10.43;5.83;;;;;;;25.85;47.38;95347.72;5135842;27;20488;-84
2021/06/05 10:06:40;;;;;;;9.37;4.30;;;;;;;25.93;39.01;95326.78;5118209;27;20442;-80
2021/06/05 10:09:34;;;;;;;4.97;4.57;;;;;;;26.14;47.71;95333.72;5116597;27;20446;-79
2021/06/05 10:12:07;;;;;;;19.53;7.50;;;;;;;26.24;39.83;95330.53;5071886;28;20455;-78
2021/06/05 10:14:54;;;;;;;13.77;6.00;;;;;;;26.19;42.66;95328.50;5072238;28;20452;-79
2021/06/05 10:17:37;;;;;;;8.37;5.23;;;;;;;26.20;38.03;95330.16;5087057;28;20494;-80
2021/06/05 10:20:15;;;;;;;39.43;8.57;;;;;;;26.30;43.59;95326.97;5062370;28;20486;-79
2021/06/05 10:22:42;;;;;;;35.13;8.13;;;;;;;26.36;37.83;95326.16;5093593;28;20832;-80
2021/06/05 10:25:20;;;;;;;11.17;5.13;;;;;;;26.18;34.03;95331.41;5091902;28;20499;-79
2021/06/05 10:27:48;;;;;;;6.60;5.00;;;;;;;25.83;35.58;95325.59;5092209;28;20841;-79
2021/06/05 10:30:30;;;;;;;10.80;4.97;;;;;;;25.47;41.79;95331.50;5092279;28;20462;-79
2021/06/05 10:33:00;;;;;;;6.40;5.50;;;;;;;25.09;37.44;95334.88;5091900;28;20439;-80
2021/06/05 10:35:31;;;;;;;6.90;5.47;;;;;;;24.85;38.35;95322.06;5091956;28;20445;-80
2021/06/05 10:38:05;;;;;;;6.20;5.67;;;;;;;24.68;37.84;95327.84;5091915;28;20450;-79
2021/06/05 10:40:32;;;;;;;8.33;4.70;;;;;;;24.50;37.97;95319.59;5091770;28;20433;-80
2021/06/05 10:43:03;;;;;;;12.87;5.60;;;;;;;24.35;36.78;95316.28;5093275;28;20807;-81
2021/06/05 10:45:34;;;;;;;5.43;4.60;;;;;;;24.26;39.15;95312.91;5092308;28;20450;-78
2021/06/05 10:48:06;;;;;;;7.10;4.10;;;;;;;24.42;35.94;95306.38;5092028;27;20927;-81
2021/06/05 10:50:35;;;;;;;5.20;4.70;;;;;;;24.47;35.46;95300.38;5155520;27;20439;-80
2021/06/05 10:53:10;;;;;;;4.30;3.97;;;;;;;24.54;37.65;95295.84;5144884;27;20444;-83
2021/06/05 10:55:43;;;;;;;11.53;5.43;;;;;;;24.74;36.79;95296.69;5134923;27;20435;-82
2021/06/05 10:58:38;;;;;;;4.90;4.20;;;;;;;24.73;37.26;95296.88;5135970;28;20420;-83
2021/06/05 11:01:09;;;;;;;4.77;4.37;;;;;;;24.93;38.00;95295.84;5136302;28;20436;-83
2021/06/05 11:03:58;;;;;;;5.70;5.20;;;;;;;25.03;36.15;95292.75;5136028;28;20820;-82
2021/06/05 11:06:28;;;;;;;5.27;4.60;;;;;;;25.05;35.89;95281.78;5135551;27;20448;-83
2021/06/05 11:08:58;;;;;;;7.30;4.53;;;;;;;25.04;36.00;95275.59;5135416;27;20532;-83
2021/06/05 11:11:45;;;;;;;4.87;4.57;;;;;;;25.06;35.67;95270.84;5139046;27;20434;-83
2021/06/05 11:14:41;;;;;;;4.97;4.60;;;;;;;25.02;37.77;95280.34;5139332;27;20432;-83
2021/06/05 11:17:26;;;;;;;4.40;3.67;;;;;;;24.90;35.40;95276.63;5139872;27;20470;-83
2021/06/05 11:19:55;;;;;;;5.70;4.83;;;;;;;24.90;36.23;95273.94;5105553;27;20432;-84
2021/06/05 11:25:34;;;;;;;4.87;4.30;;;;;;;24.86;35.59;95267.31;5148793;27;20861;-83
2021/06/05 11:28:26;;;;;;;6.60;5.30;;;;;;;25.06;36.44;95272.69;5148890;27;20436;-82
2021/06/05 11:30:53;;;;;;;6.17;3.77;;;;;;;25.26;36.29;95268.09;5145687;27;20449;-83
2021/06/05 11:33:44;;;;;;;11.07;4.90;;;;;;;25.38;35.71;95268.25;5127939;27;20438;-83
2021/06/05 11:36:40;;;;;;;5.07;4.53;;;;;;;25.31;35.59;95265.59;5144325;27;20508;-83
2021/06/05 11:39:11;;;;;;;6.70;4.57;;;;;;;25.37;37.22;95270.13;5146497;27;20444;-85
2021/06/05 11:41:48;;;;;;;7.90;5.10;;;;;;;25.51;35.36;95260.16;5144901;27;20433;-84
2021/06/05 11:44:26;;;;;;;5.03;3.80;;;;;;;25.72;36.19;95259.88;5145241;27;20472;-84
2021/06/05 11:46:55;;;;;;;4.67;4.20;;;;;;;25.76;33.94;95255.72;5142377;27;20433;-83
2021/06/05 11:49:56;;;;;;;4.67;4.20;;;;;;;25.91;32.89;95258.94;5143968;27;20434;-80
2021/06/05 11:52:47;;;;;;;6.07;4.40;;;;;;;25.84;34.64;95247.41;5124912;27;20442;-80
2021/06/05 11:55:39;;;;;;;5.33;4.93;;;;;;;25.80;35.53;95254.25;5141625;27;20442;-81
2021/06/05 11:58:11;;;;;;;4.30;4.00;;;;;;;25.87;35.26;95248.84;5082377;28;20534;-84
2021/06/05 12:00:43;;;;;;;5.43;4.20;;;;;;;25.95;36.67;95243.19;5080343;28;20509;-84
2021/06/05 12:03:20;;;;;;;10.20;4.97;;;;;;;26.13;37.47;95250.53;5082055;28;20433;-87
2021/06/05 12:05:48;;;;;;;4.23;3.93;;;;;;;26.32;33.41;95240.69;5077984;28;20515;-84
2021/06/05 12:08:20;;;;;;;3.53;3.33;;;;;;;26.45;33.88;95246.81;5079006;28;20444;-83
2021/06/05 12:10:47;;;;;;;4.87;4.27;;;;;;;26.47;35.00;95241.19;5078377;28;20943;-83
2021/06/05 12:13:25;;;;;;;3.70;3.50;;;;;;;26.46;33.65;95237.69;5079680;28;20449;-80
2021/06/05 12:15:53;;;;;;;5.00;3.77;;;;;;;26.45;33.09;95241.41;5077401;28;20473;-81
2021/06/05 12:18:24;;;;;;;4.57;4.17;;;;;;;26.53;32.32;95238.44;5077801;28;20937;-80
2021/06/05 12:20:58;;;;;;;7.43;4.60;;;;;;;26.57;32.58;95235.31;5075462;28;20431;-81
2021/06/05 12:23:29;;;;;;;4.07;3.77;;;;;;;26.47;32.67;95233.94;5076814;28;20492;-82
2021/06/05 12:26:02;;;;;;;4.90;4.50;;;;;;;26.45;36.59;95233.34;5078523;28;20932;-82
2021/06/05 12:28:31;;;;;;;4.37;4.07;;;;;;;26.23;33.62;95232.84;5046097;28;20435;-82
2021/06/05 12:31:13;;;;;;;4.77;4.20;;;;;;;26.23;33.75;95232.03;5041105;28;20446;-82
2021/06/05 12:33:40;;;;;;;4.80;4.47;;;;;;;26.13;33.80;95229.03;5035949;28;20450;-82
2021/06/05 12:36:23;;;;;;;4.53;4.10;;;;;;;25.90;35.16;95227.72;5079309;28;20459;-84
2021/06/05 12:38:51;;;;;;;4.60;4.20;;;;;;;25.89;34.26;95226.06;5079018;28;20951;-82
2021/06/05 12:41:22;;;;;;;4.90;4.50;;;;;;;25.70;34.00;95229.69;5032133;28;20452;-84
2021/06/05 12:43:50;;;;;;;5.73;4.03;;;;;;;25.48;35.37;95228.34;5075953;28;20943;-84
2021/06/05 12:46:21;;;;;;;4.67;4.27;;;;;;;25.31;33.74;95217.25;5090971;28;21017;-84
2021/06/05 12:48:51;;;;;;;5.30;4.90;;;;;;;25.08;34.68;95219.59;5118448;28;20446;-84
2021/06/05 12:51:29;;;;;;;5.50;5.00;;;;;;;25.24;35.24;95216.44;5117450;28;20798;-81
2021/06/05 12:53:58;;;;;;;24.23;6.10;;;;;;;25.25;37.40;95218.09;5117986;28;20937;-85
2021/06/05 12:56:32;;;;;;;5.93;4.43;;;;;;;25.09;34.74;95211.31;5119429;28;20449;-87
2021/06/05 12:59:01;;;;;;;5.13;4.20;;;;;;;25.20;35.92;95204.50;5117171;28;20438;-83
2021/06/05 13:01:32;;;;;;;21.63;4.93;;;;;;;25.20;35.04;95210.69;5098406;28;20482;-83
2021/06/05 13:03:59;;;;;;;5.70;4.83;;;;;;;25.36;36.58;95200.47;5117650;28;20477;-83